createdAt,value
2022-12-20T00:01:37.551Z,78.01
2022-12-20T00:05:04.243Z,77.98
2022-12-20T00:08:30.758Z,77.93
2022-12-20T00:11:57.291Z,78.05
2022-12-20T00:15:23.906Z,78.01
2022-12-20T00:18:55.054Z,78.19
2022-12-20T00:22:21.844Z,78.30
2022-12-20T00:25:48.417Z,78.34
2022-12-20T00:29:15.128Z,78.35
2022-12-20T00:32:41.634Z,78.27
2022-12-20T00:36:09.670Z,78.52
2022-12-20T00:39:37.070Z,78.41
2022-12-20T00:43:04.749Z,78.40
2022-12-20T00:46:31.949Z,78.49
2022-12-20T00:49:59.084Z,78.62
2022-12-20T00:53:26.676Z,78.58
2022-12-20T00:56:53.812Z,78.51
2022-12-20T01:00:21.792Z,78.58
2022-12-20T01:03:48.139Z,78.57
2022-12-20T01:07:17.630Z,78.56
2022-12-20T01:10:44.089Z,78.72
2022-12-20T01:14:15.145Z,78.74
2022-12-20T01:17:42.238Z,78.78
2022-12-20T01:21:11.902Z,78.77
2022-12-20T01:24:38.803Z,78.75
2022-12-20T01:28:06.905Z,78.66
2022-12-20T01:31:33.550Z,78.74
2022-12-20T01:35:00.312Z,78.62
2022-12-20T01:38:27.198Z,78.84
2022-12-20T01:41:58.765Z,78.76
2022-12-20T01:45:30.364Z,78.75
2022-12-20T01:49:02.721Z,78.82
2022-12-20T01:52:34.490Z,78.84
2022-12-20T01:56:05.340Z,78.68
2022-12-20T01:59:35.222Z,78.87
2022-12-20T02:03:07.062Z,78.79
2022-12-20T02:06:33.669Z,78.96
2022-12-20T02:10:02.383Z,79.10
2022-12-20T02:13:39.685Z,79.11
2022-12-20T02:17:14.231Z,79.09
2022-12-20T02:21:21.546Z,78.97
2022-12-20T02:25:13.408Z,79.30
2022-12-20T02:28:58.023Z,78.93
2022-12-20T02:32:28.685Z,79.04
2022-12-20T02:35:56.351Z,79.02
2022-12-20T02:39:24.586Z,78.94
2022-12-20T02:42:53.864Z,78.96
2022-12-20T02:46:22.295Z,79.05
2022-12-20T02:49:52.785Z,78.89
2022-12-20T02:53:20.052Z,79.05
2022-12-20T02:56:52.228Z,79.04
2022-12-20T03:00:21.910Z,78.87
2022-12-20T03:03:49.372Z,78.90
2022-12-20T03:07:17.581Z,78.93
2022-12-20T03:10:44.338Z,78.81
2022-12-20T03:14:11.722Z,78.79
2022-12-20T03:17:38.802Z,78.80
2022-12-20T03:21:06.009Z,79.01
2022-12-20T03:24:32.903Z,78.99
2022-12-20T03:28:00.134Z,79.03
2022-12-20T03:31:27.716Z,79.07
2022-12-20T03:34:55.312Z,79.27
2022-12-20T03:38:27.109Z,79.16
2022-12-20T03:41:54.031Z,79.21
2022-12-20T03:45:20.674Z,79.12
2022-12-20T03:48:48.358Z,78.99
2022-12-20T03:52:16.039Z,79.27
2022-12-20T03:55:45.381Z,79.03
2022-12-20T03:59:13.231Z,79.16
2022-12-20T04:02:42.000Z,79.24
2022-12-20T04:06:09.695Z,79.29
2022-12-20T04:09:37.066Z,79.15
2022-12-20T04:13:07.549Z,79.21
2022-12-20T04:16:36.080Z,78.98
2022-12-20T04:20:19.241Z,79.14
2022-12-20T04:23:50.449Z,78.91
2022-12-20T04:27:16.991Z,78.96
2022-12-20T04:30:43.901Z,78.97
2022-12-20T04:34:11.229Z,78.77
2022-12-20T04:37:38.558Z,79.14
2022-12-20T04:41:05.750Z,79.01
2022-12-20T04:44:44.421Z,79.33
2022-12-20T04:48:46.240Z,79.40
2022-12-20T04:52:18.196Z,79.29
2022-12-20T04:55:45.535Z,79.20
2022-12-20T04:59:13.762Z,79.33
2022-12-20T05:02:42.414Z,79.19
2022-12-20T05:06:12.969Z,79.22
2022-12-20T05:09:43.652Z,79.27
2022-12-20T05:13:11.210Z,79.19
2022-12-20T05:16:41.991Z,79.05
2022-12-20T05:20:12.034Z,79.13
2022-12-20T05:23:58.424Z,79.13
2022-12-20T05:27:26.003Z,79.08
2022-12-20T05:30:53.443Z,79.03
2022-12-20T05:34:20.607Z,79.04
2022-12-20T05:37:51.290Z,78.79
2022-12-20T05:41:18.664Z,79.07
2022-12-20T05:44:48.221Z,78.97
2022-12-20T05:48:15.701Z,79.28
2022-12-20T05:51:43.471Z,79.30
2022-12-20T05:55:23.377Z,79.40
2022-12-20T05:58:52.904Z,79.26
2022-12-20T06:02:20.805Z,79.21
2022-12-20T06:05:51.490Z,79.14
2022-12-20T06:09:24.190Z,79.28
2022-12-20T06:13:00.133Z,79.15
2022-12-20T06:16:28.058Z,79.19
2022-12-20T06:20:06.401Z,79.27
2022-12-20T06:23:34.482Z,79.34
2022-12-20T06:27:11.351Z,79.35
2022-12-20T06:30:38.419Z,79.22
2022-12-20T06:34:08.181Z,79.29
2022-12-20T06:37:40.731Z,79.12
2022-12-20T06:41:07.770Z,79.14
2022-12-20T06:44:36.445Z,79.01
2022-12-20T06:48:05.077Z,79.05
2022-12-20T06:51:33.933Z,79.15
2022-12-20T06:55:00.951Z,79.14
2022-12-20T06:58:29.225Z,79.07
2022-12-20T07:01:55.893Z,79.07
2022-12-20T07:05:28.389Z,79.25
2022-12-20T07:08:55.267Z,79.23
2022-12-20T07:12:21.571Z,79.08
2022-12-20T07:15:48.665Z,79.13
2022-12-20T07:19:15.938Z,79.28
2022-12-20T07:22:42.620Z,79.28
2022-12-20T07:26:11.522Z,79.31
2022-12-20T07:29:40.753Z,79.18
2022-12-20T07:33:07.938Z,79.28
2022-12-20T07:36:34.878Z,79.16
2022-12-20T07:40:01.458Z,79.10
2022-12-20T07:43:28.395Z,79.17
2022-12-20T07:46:56.071Z,78.90
2022-12-20T07:50:22.881Z,78.94
2022-12-20T07:53:53.365Z,78.91
2022-12-20T07:57:26.403Z,78.69
2022-12-20T08:00:53.545Z,78.75
2022-12-20T08:04:24.852Z,78.90
2022-12-20T08:07:56.952Z,78.97
2022-12-20T08:11:26.427Z,79.13
2022-12-20T08:14:56.460Z,79.10
2022-12-20T08:18:37.960Z,79.22
2022-12-20T08:22:05.246Z,79.02
2022-12-20T08:25:36.018Z,78.95
2022-12-20T08:29:08.843Z,79.06
2022-12-20T08:32:36.923Z,78.71
2022-12-20T08:36:16.249Z,79.00
2022-12-20T08:39:42.849Z,78.99
2022-12-20T08:43:10.468Z,78.97
2022-12-20T08:46:37.926Z,78.88
2022-12-20T08:50:05.036Z,78.94
2022-12-20T08:53:32.864Z,79.02
2022-12-20T08:56:59.987Z,78.99
2022-12-20T09:00:26.620Z,78.83
2022-12-20T09:03:52.893Z,78.59
2022-12-20T09:07:19.477Z,78.93
2022-12-20T09:10:47.182Z,78.79
2022-12-20T09:14:14.132Z,79.16
2022-12-20T09:17:41.075Z,78.81
2022-12-20T09:21:09.659Z,78.81
2022-12-20T09:24:39.187Z,78.49
2022-12-20T09:28:06.465Z,78.76
2022-12-20T09:31:33.567Z,78.66
2022-12-20T09:34:59.908Z,78.67
2022-12-20T09:38:27.086Z,78.67
2022-12-20T09:41:53.454Z,78.56
2022-12-20T09:45:26.654Z,78.98
2022-12-20T09:48:53.371Z,78.64
2022-12-20T09:52:46.635Z,78.44
2022-12-20T09:56:15.246Z,78.43
2022-12-20T09:59:49.508Z,78.51
2022-12-20T10:03:22.113Z,78.37
2022-12-20T10:07:00.775Z,78.33
2022-12-20T10:10:42.864Z,78.23
2022-12-20T10:14:21.283Z,78.48
2022-12-20T10:17:56.912Z,78.40
2022-12-20T10:21:35.129Z,78.48
2022-12-20T10:25:18.491Z,78.54
2022-12-20T10:28:50.699Z,78.40
2022-12-20T10:32:22.664Z,78.68
2022-12-20T10:35:50.826Z,78.41
2022-12-20T10:39:17.976Z,78.56
2022-12-20T10:42:45.133Z,78.55
2022-12-20T10:46:14.731Z,78.22
2022-12-20T10:49:44.377Z,78.17
2022-12-20T10:53:27.650Z,78.12
2022-12-20T10:57:02.205Z,78.22
2022-12-20T11:00:31.577Z,77.98
2022-12-20T11:04:08.677Z,78.00
2022-12-20T11:07:37.098Z,78.11
2022-12-20T11:11:22.204Z,77.99
2022-12-20T11:14:52.361Z,77.84
2022-12-20T11:18:36.128Z,77.82
2022-12-20T11:22:13.280Z,77.81
2022-12-20T11:26:03.743Z,77.70
2022-12-20T11:29:54.335Z,78.05
2022-12-20T11:33:53.414Z,77.93
2022-12-20T11:37:24.118Z,77.92
2022-12-20T11:40:55.970Z,77.89
2022-12-20T11:44:34.508Z,77.65
2022-12-20T11:48:30.544Z,77.77
2022-12-20T11:52:06.186Z,77.62
2022-12-20T11:55:36.294Z,77.90
2022-12-20T11:59:07.139Z,77.73
2022-12-20T12:02:41.418Z,77.85
2022-12-20T12:06:13.416Z,77.94
2022-12-20T12:09:44.764Z,77.93
2022-12-20T12:13:20.521Z,77.92
2022-12-20T12:16:53.144Z,77.93
2022-12-20T12:20:36.145Z,77.99
2022-12-20T12:24:09.350Z,77.91
2022-12-20T12:27:36.653Z,77.83
2022-12-20T12:31:10.985Z,77.85
2022-12-20T12:34:57.269Z,77.94
2022-12-20T12:38:45.249Z,77.85
2022-12-20T12:42:37.822Z,77.69
2022-12-20T12:46:14.237Z,77.61
2022-12-20T12:49:42.200Z,77.47
2022-12-20T12:53:16.261Z,77.63
2022-12-20T12:56:46.880Z,77.67
2022-12-20T13:00:52.258Z,77.85
2022-12-20T13:04:30.270Z,77.75
2022-12-20T13:07:57.146Z,77.88
2022-12-20T13:11:36.049Z,77.83
2022-12-20T13:15:02.933Z,77.86
2022-12-20T13:18:31.941Z,77.81
2022-12-20T13:22:00.487Z,77.79
2022-12-20T13:25:34.189Z,77.79
2022-12-20T13:29:27.406Z,77.65
2022-12-20T13:33:19.595Z,77.56
2022-12-20T13:36:45.766Z,77.38
2022-12-20T13:40:25.911Z,77.39
2022-12-20T13:43:55.363Z,77.75
2022-12-20T13:47:33.929Z,77.61
2022-12-20T13:51:02.917Z,77.56
2022-12-20T13:54:29.586Z,77.54
2022-12-20T13:57:57.043Z,77.32
2022-12-20T14:01:26.784Z,77.65
2022-12-20T14:05:01.348Z,77.32
2022-12-20T14:08:33.199Z,77.59
2022-12-20T14:12:07.009Z,77.49
2022-12-20T14:15:37.015Z,77.56
2022-12-20T14:19:19.684Z,77.61
2022-12-20T14:23:00.718Z,77.74
2022-12-20T14:26:34.663Z,77.50
2022-12-20T14:30:01.595Z,77.53
2022-12-20T14:33:35.607Z,77.64
2022-12-20T14:37:28.700Z,77.41
2022-12-20T14:40:56.288Z,77.13
2022-12-20T14:44:26.807Z,77.40
2022-12-20T14:47:59.501Z,77.29
2022-12-20T14:51:58.540Z,77.11
2022-12-20T14:55:27.778Z,76.99
2022-12-20T14:59:14.732Z,77.21
2022-12-20T15:02:44.552Z,77.44
2022-12-20T15:06:35.842Z,77.28
2022-12-20T15:10:03.304Z,77.43
2022-12-20T15:13:34.248Z,77.65
2022-12-20T15:17:13.436Z,77.66
2022-12-20T15:20:40.529Z,77.48
2022-12-20T15:24:12.069Z,77.55
2022-12-20T15:27:38.875Z,77.47
2022-12-20T15:31:06.617Z,77.57
2022-12-20T15:34:38.186Z,77.35
2022-12-20T15:38:04.895Z,77.02
2022-12-20T15:41:34.284Z,77.32
2022-12-20T15:45:03.597Z,77.25
2022-12-20T15:48:30.339Z,77.07
2022-12-20T15:51:59.762Z,77.06
2022-12-20T15:55:26.855Z,77.02
2022-12-20T15:58:54.941Z,76.83
2022-12-20T16:02:25.464Z,76.89
2022-12-20T16:05:54.571Z,76.62
2022-12-20T16:09:22.006Z,76.97
2022-12-20T16:12:49.671Z,77.30
2022-12-20T16:16:23.241Z,77.10
2022-12-20T16:19:49.931Z,77.25
2022-12-20T16:23:22.882Z,77.26
2022-12-20T16:26:52.151Z,77.15
2022-12-20T16:30:19.668Z,77.07
2022-12-20T16:33:46.456Z,77.48
2022-12-20T16:37:13.269Z,77.11
2022-12-20T16:40:39.700Z,77.26
2022-12-20T16:44:07.111Z,77.17
2022-12-20T16:47:33.743Z,77.14
2022-12-20T16:51:01.655Z,77.12
2022-12-20T16:54:28.280Z,77.01
2022-12-20T16:57:55.874Z,77.14
2022-12-20T17:01:25.120Z,77.21
2022-12-20T17:04:53.152Z,76.95
2022-12-20T17:12:05.630Z,77.08
2022-12-20T17:15:34.013Z,77.55
2022-12-20T17:19:01.146Z,77.34
2022-12-20T17:26:15.359Z,77.38
2022-12-20T17:29:42.861Z,77.51
2022-12-20T17:33:15.884Z,77.33
2022-12-20T17:36:42.972Z,77.37
2022-12-20T17:40:14.603Z,77.22
2022-12-20T17:43:41.182Z,77.29
2022-12-20T17:47:08.376Z,77.05
2022-12-20T17:50:35.851Z,77.11
2022-12-20T17:54:03.682Z,77.01
2022-12-20T17:57:30.959Z,76.92
2022-12-20T18:00:58.092Z,77.00
2022-12-20T18:04:24.848Z,77.01
2022-12-20T18:07:56.535Z,77.12
2022-12-20T18:11:26.564Z,77.30
2022-12-20T18:14:53.542Z,77.29
2022-12-20T18:18:20.090Z,77.30
2022-12-20T18:21:47.444Z,77.27
2022-12-20T18:25:18.385Z,77.22
2022-12-20T18:28:49.475Z,77.42
2022-12-20T18:32:16.373Z,77.35
2022-12-20T18:35:42.670Z,77.21
2022-12-20T18:39:13.387Z,77.29
2022-12-20T18:42:39.651Z,77.17
2022-12-20T18:46:08.561Z,77.03
2022-12-20T18:49:37.693Z,77.05
2022-12-20T18:53:04.431Z,76.92
2022-12-20T18:56:32.931Z,76.82
2022-12-20T18:59:59.741Z,76.92
2022-12-20T19:03:26.501Z,76.79
2022-12-20T19:06:53.608Z,76.41
2022-12-20T19:10:20.626Z,76.66
2022-12-20T19:13:48.397Z,76.92
2022-12-20T19:17:17.627Z,76.98
2022-12-20T19:20:44.470Z,76.62
2022-12-20T19:24:12.540Z,76.77
2022-12-20T19:27:39.330Z,76.99
2022-12-20T19:31:17.386Z,76.82
2022-12-20T19:34:47.612Z,76.71
2022-12-20T19:38:17.029Z,76.70
2022-12-20T19:41:54.877Z,76.73
2022-12-20T19:45:22.200Z,76.43
2022-12-20T19:48:49.688Z,76.32
2022-12-20T19:52:26.479Z,76.63
2022-12-20T19:56:01.791Z,76.45
2022-12-20T19:59:31.709Z,76.57
2022-12-20T20:02:59.019Z,76.52
2022-12-20T20:06:28.907Z,76.28
2022-12-20T20:09:56.879Z,76.41
2022-12-20T20:13:24.775Z,76.06
2022-12-20T20:16:53.448Z,76.28
2022-12-20T20:20:20.964Z,76.22
2022-12-20T20:23:49.589Z,76.30
2022-12-20T20:27:20.010Z,76.30
2022-12-20T20:30:49.350Z,76.35
2022-12-20T20:34:18.324Z,76.28
2022-12-20T20:37:49.087Z,76.60
2022-12-20T20:41:17.651Z,76.49
2022-12-20T20:44:44.974Z,76.43
2022-12-20T20:48:12.073Z,76.25
2022-12-20T20:51:38.765Z,76.35
2022-12-20T20:55:07.710Z,76.23
2022-12-20T20:58:35.878Z,75.79
2022-12-20T21:02:06.675Z,75.99
2022-12-20T21:09:24.833Z,75.70
2022-12-20T21:12:56.074Z,75.78
2022-12-20T21:16:24.806Z,75.80
2022-12-20T21:19:52.419Z,75.72
2022-12-20T21:23:19.254Z,76.09
2022-12-20T21:26:47.978Z,75.94
2022-12-20T21:30:17.595Z,76.28
2022-12-20T21:33:46.011Z,76.22
2022-12-20T21:37:12.393Z,76.02
2022-12-20T21:40:39.498Z,76.05
2022-12-20T21:44:08.653Z,75.86
2022-12-20T21:47:37.580Z,75.62
2022-12-20T21:51:06.416Z,75.69
2022-12-20T21:54:36.475Z,75.62
2022-12-20T21:58:03.172Z,75.47
2022-12-20T22:01:32.069Z,75.69
2022-12-20T22:04:58.785Z,75.41
2022-12-20T22:08:27.274Z,75.60
2022-12-20T22:11:54.820Z,75.51
2022-12-20T22:15:21.571Z,75.64
2022-12-20T22:18:54.401Z,75.79
2022-12-20T22:22:21.250Z,75.56
2022-12-20T22:25:49.284Z,75.88
2022-12-20T22:29:15.863Z,75.87
2022-12-20T22:32:44.872Z,75.95
2022-12-20T22:36:13.584Z,75.74
2022-12-20T22:39:42.301Z,75.75
2022-12-20T22:43:08.751Z,75.48
2022-12-20T22:50:21.400Z,75.45
2022-12-20T22:53:56.936Z,75.33
2022-12-20T22:57:24.158Z,75.28
2022-12-20T23:00:53.639Z,75.09
2022-12-20T23:04:20.760Z,75.22
2022-12-20T23:07:47.444Z,75.24
2022-12-20T23:11:33.116Z,75.16
2022-12-20T23:15:17.674Z,74.88
2022-12-20T23:18:44.911Z,75.46
2022-12-20T23:22:30.213Z,75.20
2022-12-20T23:25:56.748Z,75.27
2022-12-20T23:29:23.746Z,75.45
2022-12-20T23:32:50.978Z,75.34
2022-12-20T23:36:17.644Z,75.09
2022-12-20T23:39:44.549Z,75.22
2022-12-20T23:43:11.263Z,75.31
2022-12-20T23:46:38.553Z,75.29
2022-12-20T23:50:13.714Z,74.91
2022-12-20T23:53:40.901Z,75.13
2022-12-20T23:57:08.891Z,75.07
